sensor_id;sensor_type;location;lat;lon;timestamp;P1;durP1;ratioP1;P2;durP2;ratioP2
16766;SDS011;8501;49.926;8.404;2023-12-28T00:01:37;11.43;;;7.60;;
16766;SDS011;8501;49.926;8.404;2023-12-28T00:04:03;13.23;;;8.30;;
16766;SDS011;8501;49.926;8.404;2023-12-28T00:06:28;13.03;;;8.03;;
16766;SDS011;8501;49.926;8.404;2023-12-28T00:08:54;12.77;;;8.13;;
16766;SDS011;8501;49.926;8.404;2023-12-28T00:11:19;13.13;;;8.23;;
16766;SDS011;8501;49.926;8.404;2023-12-28T00:13:45;13.80;;;8.93;;
16766;SDS011;8501;49.926;8.404;2023-12-28T00:16:11;16.03;;;8.93;;
16766;SDS011;8501;49.926;8.404;2023-12-28T00:18:36;12.83;;;8.93;;
16766;SDS011;8501;49.926;8.404;2023-12-28T00:21:03;14.43;;;8.60;;
16766;SDS011;8501;49.926;8.404;2023-12-28T00:23:32;11.13;;;7.93;;
16766;SDS011;8501;49.926;8.404;2023-12-28T00:25:57;12.87;;;8.67;;
16766;SDS011;8501;49.926;8.404;2023-12-28T00:28:23;13.03;;;8.27;;
16766;SDS011;8501;49.926;8.404;2023-12-28T00:30:49;12.23;;;8.60;;
16766;SDS011;8501;49.926;8.404;2023-12-28T00:33:16;13.83;;;8.37;;
16766;SDS011;8501;49.926;8.404;2023-12-28T00:35:41;14.80;;;8.10;;
16766;SDS011;8501;49.926;8.404;2023-12-28T00:38:07;13.90;;;8.20;;
16766;SDS011;8501;49.926;8.404;2023-12-28T00:40:32;11.73;;;7.57;;
16766;SDS011;8501;49.926;8.404;2023-12-28T00:42:58;14.23;;;8.07;;
16766;SDS011;8501;49.926;8.404;2023-12-28T00:45:23;15.67;;;8.57;;
16766;SDS011;8501;49.926;8.404;2023-12-28T00:47:49;13.73;;;8.23;;
16766;SDS011;8501;49.926;8.404;2023-12-28T00:50:17;10.93;;;7.63;;
16766;SDS011;8501;49.926;8.404;2023-12-28T00:52:45;11.30;;;7.50;;
16766;SDS011;8501;49.926;8.404;2023-12-28T00:55:10;11.50;;;7.40;;
16766;SDS011;8501;49.926;8.404;2023-12-28T00:57:36;11.37;;;7.10;;
16766;SDS011;8501;49.926;8.404;2023-12-28T01:00:02;10.17;;;7.33;;
16766;SDS011;8501;49.926;8.404;2023-12-28T01:02:28;15.00;;;7.47;;
16766;SDS011;8501;49.926;8.404;2023-12-28T01:04:53;13.70;;;7.33;;
16766;SDS011;8501;49.926;8.404;2023-12-28T01:07:22;14.53;;;7.63;;
16766;SDS011;8501;49.926;8.404;2023-12-28T01:09:48;10.97;;;7.33;;
16766;SDS011;8501;49.926;8.404;2023-12-28T01:12:13;11.00;;;7.57;;
16766;SDS011;8501;49.926;8.404;2023-12-28T01:14:39;12.00;;;7.70;;
16766;SDS011;8501;49.926;8.404;2023-12-28T01:17:04;10.87;;;7.00;;
16766;SDS011;8501;49.926;8.404;2023-12-28T01:19:30;11.93;;;7.93;;
16766;SDS011;8501;49.926;8.404;2023-12-28T01:21:55;12.13;;;7.10;;
16766;SDS011;8501;49.926;8.404;2023-12-28T01:24:21;12.33;;;7.00;;
16766;SDS011;8501;49.926;8.404;2023-12-28T01:26:47;10.43;;;6.83;;
16766;SDS011;8501;49.926;8.404;2023-12-28T01:29:12;10.60;;;6.60;;
16766;SDS011;8501;49.926;8.404;2023-12-28T01:31:39;9.73;;;6.00;;
16766;SDS011;8501;49.926;8.404;2023-12-28T01:34:06;10.23;;;6.20;;
16766;SDS011;8501;49.926;8.404;2023-12-28T01:36:34;10.70;;;5.93;;
16766;SDS011;8501;49.926;8.404;2023-12-28T01:39:00;10.67;;;6.50;;
16766;SDS011;8501;49.926;8.404;2023-12-28T01:41:27;10.33;;;6.43;;
16766;SDS011;8501;49.926;8.404;2023-12-28T01:43:53;8.73;;;6.10;;
16766;SDS011;8501;49.926;8.404;2023-12-28T01:46:19;9.40;;;5.67;;
16766;SDS011;8501;49.926;8.404;2023-12-28T01:48:47;8.90;;;5.83;;
16766;SDS011;8501;49.926;8.404;2023-12-28T01:51:14;7.67;;;5.60;;
16766;SDS011;8501;49.926;8.404;2023-12-28T01:53:40;8.63;;;5.90;;
16766;SDS011;8501;49.926;8.404;2023-12-28T01:56:07;9.37;;;5.80;;
16766;SDS011;8501;49.926;8.404;2023-12-28T01:58:33;8.30;;;6.00;;
16766;SDS011;8501;49.926;8.404;2023-12-28T02:01:01;11.73;;;6.47;;
16766;SDS011;8501;49.926;8.404;2023-12-28T02:03:27;9.70;;;6.20;;
16766;SDS011;8501;49.926;8.404;2023-12-28T02:05:53;8.70;;;6.27;;
16766;SDS011;8501;49.926;8.404;2023-12-28T02:08:20;9.77;;;6.10;;
16766;SDS011;8501;49.926;8.404;2023-12-28T02:10:46;10.27;;;6.37;;
16766;SDS011;8501;49.926;8.404;2023-12-28T02:13:12;10.83;;;6.07;;
16766;SDS011;8501;49.926;8.404;2023-12-28T02:15:38;13.17;;;7.40;;
16766;SDS011;8501;49.926;8.404;2023-12-28T02:18:09;10.47;;;6.43;;
16766;SDS011;8501;49.926;8.404;2023-12-28T02:20:38;10.57;;;6.17;;
16766;SDS011;8501;49.926;8.404;2023-12-28T02:23:04;13.40;;;6.97;;
16766;SDS011;8501;49.926;8.404;2023-12-28T02:25:31;14.43;;;8.73;;
16766;SDS011;8501;49.926;8.404;2023-12-28T02:27:56;18.23;;;10.53;;
16766;SDS011;8501;49.926;8.404;2023-12-28T02:30:22;18.13;;;10.30;;
16766;SDS011;8501;49.926;8.404;2023-12-28T02:35:40;9.73;;;6.47;;
16766;SDS011;8501;49.926;8.404;2023-12-28T02:38:09;12.17;;;6.73;;
16766;SDS011;8501;49.926;8.404;2023-12-28T02:40:37;9.07;;;6.17;;
16766;SDS011;8501;49.926;8.404;2023-12-28T02:43:04;11.70;;;6.73;;
16766;SDS011;8501;49.926;8.404;2023-12-28T02:45:32;11.97;;;6.10;;
16766;SDS011;8501;49.926;8.404;2023-12-28T02:47:58;11.37;;;6.53;;
16766;SDS011;8501;49.926;8.404;2023-12-28T02:50:25;10.60;;;6.13;;
16766;SDS011;8501;49.926;8.404;2023-12-28T02:52:50;7.50;;;5.47;;
16766;SDS011;8501;49.926;8.404;2023-12-28T02:55:16;8.40;;;6.27;;
16766;SDS011;8501;49.926;8.404;2023-12-28T02:57:43;9.77;;;6.20;;
16766;SDS011;8501;49.926;8.404;2023-12-28T03:00:09;9.33;;;6.13;;
16766;SDS011;8501;49.926;8.404;2023-12-28T03:02:36;8.97;;;6.17;;
16766;SDS011;8501;49.926;8.404;2023-12-28T03:05:02;10.67;;;5.80;;
16766;SDS011;8501;49.926;8.404;2023-12-28T03:07:32;7.97;;;5.77;;
16766;SDS011;8501;49.926;8.404;2023-12-28T03:09:58;8.40;;;5.83;;
16766;SDS011;8501;49.926;8.404;2023-12-28T03:12:24;8.77;;;6.17;;
16766;SDS011;8501;49.926;8.404;2023-12-28T03:14:50;7.93;;;5.67;;
16766;SDS011;8501;49.926;8.404;2023-12-28T03:17:17;8.53;;;5.60;;
16766;SDS011;8501;49.926;8.404;2023-12-28T03:19:43;9.30;;;6.07;;
16766;SDS011;8501;49.926;8.404;2023-12-28T03:22:09;9.17;;;5.93;;
16766;SDS011;8501;49.926;8.404;2023-12-28T03:24:36;9.37;;;6.50;;
16766;SDS011;8501;49.926;8.404;2023-12-28T03:27:04;9.83;;;6.67;;
16766;SDS011;8501;49.926;8.404;2023-12-28T03:29:30;9.00;;;6.33;;
16766;SDS011;8501;49.926;8.404;2023-12-28T03:31:55;10.40;;;6.50;;
16766;SDS011;8501;49.926;8.404;2023-12-28T03:34:21;8.43;;;5.47;;
16766;SDS011;8501;49.926;8.404;2023-12-28T03:36:47;9.67;;;5.67;;
16766;SDS011;8501;49.926;8.404;2023-12-28T03:39:13;8.30;;;5.60;;
16766;SDS011;8501;49.926;8.404;2023-12-28T03:41:39;9.67;;;5.60;;
16766;SDS011;8501;49.926;8.404;2023-12-28T03:44:04;9.40;;;6.70;;
16766;SDS011;8501;49.926;8.404;2023-12-28T03:46:31;10.33;;;6.57;;
16766;SDS011;8501;49.926;8.404;2023-12-28T03:48:57;8.27;;;6.00;;
16766;SDS011;8501;49.926;8.404;2023-12-28T03:51:23;8.43;;;5.23;;
16766;SDS011;8501;49.926;8.404;2023-12-28T03:53:50;9.77;;;5.87;;
16766;SDS011;8501;49.926;8.404;2023-12-28T03:56:26;9.60;;;5.80;;
16766;SDS011;8501;49.926;8.404;2023-12-28T03:58:52;7.13;;;4.90;;
16766;SDS011;8501;49.926;8.404;2023-12-28T04:01:19;6.50;;;4.90;;
16766;SDS011;8501;49.926;8.404;2023-12-28T04:03:47;8.60;;;5.93;;
16766;SDS011;8501;49.926;8.404;2023-12-28T04:06:13;8.97;;;5.63;;
16766;SDS011;8501;49.926;8.404;2023-12-28T04:08:40;8.43;;;5.67;;
16766;SDS011;8501;49.926;8.404;2023-12-28T04:11:06;8.93;;;5.33;;
16766;SDS011;8501;49.926;8.404;2023-12-28T04:13:31;6.47;;;4.23;;
16766;SDS011;8501;49.926;8.404;2023-12-28T04:15:57;7.80;;;4.67;;
16766;SDS011;8501;49.926;8.404;2023-12-28T04:18:23;7.67;;;4.73;;
16766;SDS011;8501;49.926;8.404;2023-12-28T04:20:48;7.40;;;4.57;;
16766;SDS011;8501;49.926;8.404;2023-12-28T04:23:14;6.03;;;4.33;;
16766;SDS011;8501;49.926;8.404;2023-12-28T04:25:40;6.67;;;4.73;;
16766;SDS011;8501;49.926;8.404;2023-12-28T04:28:06;6.93;;;4.63;;
16766;SDS011;8501;49.926;8.404;2023-12-28T04:30:32;7.53;;;4.20;;
16766;SDS011;8501;49.926;8.404;2023-12-28T04:32:57;7.33;;;4.60;;
16766;SDS011;8501;49.926;8.404;2023-12-28T04:35:23;7.50;;;4.77;;
16766;SDS011;8501;49.926;8.404;2023-12-28T04:37:49;6.43;;;4.33;;
16766;SDS011;8501;49.926;8.404;2023-12-28T04:40:16;7.47;;;4.67;;
16766;SDS011;8501;49.926;8.404;2023-12-28T04:42:42;5.83;;;4.40;;
16766;SDS011;8501;49.926;8.404;2023-12-28T04:45:08;6.87;;;4.80;;
16766;SDS011;8501;49.926;8.404;2023-12-28T04:47:35;6.60;;;4.67;;
16766;SDS011;8501;49.926;8.404;2023-12-28T04:50:02;5.77;;;4.30;;
16766;SDS011;8501;49.926;8.404;2023-12-28T04:52:29;7.07;;;4.30;;
16766;SDS011;8501;49.926;8.404;2023-12-28T04:54:55;8.13;;;4.40;;
16766;SDS011;8501;49.926;8.404;2023-12-28T04:57:20;6.80;;;4.50;;
16766;SDS011;8501;49.926;8.404;2023-12-28T04:59:49;6.80;;;4.40;;
16766;SDS011;8501;49.926;8.404;2023-12-28T05:02:14;6.37;;;4.20;;
16766;SDS011;8501;49.926;8.404;2023-12-28T05:04:40;7.27;;;4.33;;
16766;SDS011;8501;49.926;8.404;2023-12-28T05:07:08;7.40;;;4.63;;
16766;SDS011;8501;49.926;8.404;2023-12-28T05:09:34;8.07;;;4.60;;
16766;SDS011;8501;49.926;8.404;2023-12-28T05:12:00;7.03;;;4.50;;
16766;SDS011;8501;49.926;8.404;2023-12-28T05:14:25;6.13;;;4.40;;
16766;SDS011;8501;49.926;8.404;2023-12-28T05:16:51;5.27;;;4.27;;
16766;SDS011;8501;49.926;8.404;2023-12-28T05:19:16;6.03;;;4.47;;
16766;SDS011;8501;49.926;8.404;2023-12-28T05:21:42;6.87;;;4.67;;
16766;SDS011;8501;49.926;8.404;2023-12-28T05:24:09;5.70;;;4.40;;
16766;SDS011;8501;49.926;8.404;2023-12-28T05:26:35;6.23;;;4.20;;
16766;SDS011;8501;49.926;8.404;2023-12-28T05:29:00;7.17;;;4.63;;
16766;SDS011;8501;49.926;8.404;2023-12-28T05:31:26;6.87;;;4.50;;
16766;SDS011;8501;49.926;8.404;2023-12-28T05:33:52;6.30;;;4.50;;
16766;SDS011;8501;49.926;8.404;2023-12-28T05:36:17;7.87;;;4.60;;
16766;SDS011;8501;49.926;8.404;2023-12-28T05:38:43;6.87;;;4.90;;
16766;SDS011;8501;49.926;8.404;2023-12-28T05:41:11;7.17;;;4.60;;
16766;SDS011;8501;49.926;8.404;2023-12-28T05:43:37;7.00;;;4.57;;
16766;SDS011;8501;49.926;8.404;2023-12-28T05:46:03;7.77;;;5.00;;
16766;SDS011;8501;49.926;8.404;2023-12-28T05:48:29;7.13;;;5.00;;
16766;SDS011;8501;49.926;8.404;2023-12-28T05:50:54;6.07;;;4.90;;
16766;SDS011;8501;49.926;8.404;2023-12-28T05:53:22;8.17;;;4.77;;
16766;SDS011;8501;49.926;8.404;2023-12-28T05:55:47;6.53;;;4.93;;
16766;SDS011;8501;49.926;8.404;2023-12-28T05:58:13;7.57;;;4.93;;
16766;SDS011;8501;49.926;8.404;2023-12-28T06:00:38;7.57;;;5.10;;
16766;SDS011;8501;49.926;8.404;2023-12-28T06:03:04;6.57;;;4.80;;
16766;SDS011;8501;49.926;8.404;2023-12-28T06:05:30;7.17;;;4.70;;
16766;SDS011;8501;49.926;8.404;2023-12-28T06:07:57;7.37;;;4.80;;
16766;SDS011;8501;49.926;8.404;2023-12-28T06:10:23;6.10;;;4.77;;
16766;SDS011;8501;49.926;8.404;2023-12-28T06:12:49;8.13;;;4.67;;
16766;SDS011;8501;49.926;8.404;2023-12-28T06:15:15;6.73;;;4.23;;
16766;SDS011;8501;49.926;8.404;2023-12-28T06:17:41;6.07;;;4.20;;
16766;SDS011;8501;49.926;8.404;2023-12-28T06:20:07;5.83;;;4.20;;
16766;SDS011;8501;49.926;8.404;2023-12-28T06:22:38;6.23;;;3.70;;
16766;SDS011;8501;49.926;8.404;2023-12-28T06:25:04;4.53;;;3.30;;
16766;SDS011;8501;49.926;8.404;2023-12-28T06:27:30;4.80;;;3.73;;
16766;SDS011;8501;49.926;8.404;2023-12-28T06:29:55;4.13;;;3.30;;
16766;SDS011;8501;49.926;8.404;2023-12-28T06:32:21;5.30;;;3.40;;
16766;SDS011;8501;49.926;8.404;2023-12-28T06:34:47;4.27;;;3.43;;
16766;SDS011;8501;49.926;8.404;2023-12-28T06:37:13;5.07;;;3.30;;
16766;SDS011;8501;49.926;8.404;2023-12-28T06:39:39;4.40;;;3.20;;
16766;SDS011;8501;49.926;8.404;2023-12-28T06:42:05;5.33;;;3.50;;
16766;SDS011;8501;49.926;8.404;2023-12-28T06:44:30;4.20;;;3.20;;
16766;SDS011;8501;49.926;8.404;2023-12-28T06:46:57;4.33;;;3.27;;
16766;SDS011;8501;49.926;8.404;2023-12-28T06:49:23;4.37;;;3.50;;
16766;SDS011;8501;49.926;8.404;2023-12-28T06:51:49;4.23;;;3.03;;
16766;SDS011;8501;49.926;8.404;2023-12-28T06:54:15;5.53;;;3.53;;
16766;SDS011;8501;49.926;8.404;2023-12-28T06:56:41;5.27;;;3.50;;
16766;SDS011;8501;49.926;8.404;2023-12-28T06:59:06;4.93;;;3.30;;
16766;SDS011;8501;49.926;8.404;2023-12-28T07:01:32;4.83;;;3.33;;
16766;SDS011;8501;49.926;8.404;2023-12-28T07:03:58;5.23;;;3.70;;
16766;SDS011;8501;49.926;8.404;2023-12-28T07:06:24;5.77;;;4.33;;
16766;SDS011;8501;49.926;8.404;2023-12-28T07:08:50;5.00;;;3.50;;
16766;SDS011;8501;49.926;8.404;2023-12-28T07:11:15;5.17;;;3.73;;
16766;SDS011;8501;49.926;8.404;2023-12-28T07:13:41;5.80;;;3.97;;
16766;SDS011;8501;49.926;8.404;2023-12-28T07:16:07;5.00;;;3.57;;
16766;SDS011;8501;49.926;8.404;2023-12-28T07:18:33;4.97;;;3.73;;
16766;SDS011;8501;49.926;8.404;2023-12-28T07:21:00;6.87;;;4.00;;
16766;SDS011;8501;49.926;8.404;2023-12-28T07:23:25;5.63;;;4.20;;
16766;SDS011;8501;49.926;8.404;2023-12-28T07:25:52;5.70;;;3.40;;
16766;SDS011;8501;49.926;8.404;2023-12-28T07:28:17;4.53;;;3.60;;
16766;SDS011;8501;49.926;8.404;2023-12-28T07:30:43;6.00;;;3.90;;
16766;SDS011;8501;49.926;8.404;2023-12-28T07:33:08;5.37;;;4.13;;
16766;SDS011;8501;49.926;8.404;2023-12-28T07:35:34;6.53;;;4.50;;
16766;SDS011;8501;49.926;8.404;2023-12-28T07:37:59;6.13;;;4.03;;
16766;SDS011;8501;49.926;8.404;2023-12-28T07:40:25;5.37;;;3.90;;
16766;SDS011;8501;49.926;8.404;2023-12-28T07:42:51;6.87;;;4.50;;
16766;SDS011;8501;49.926;8.404;2023-12-28T07:45:16;5.37;;;4.03;;
16766;SDS011;8501;49.926;8.404;2023-12-28T07:47:47;4.60;;;3.50;;
16766;SDS011;8501;49.926;8.404;2023-12-28T07:50:15;5.20;;;4.07;;
16766;SDS011;8501;49.926;8.404;2023-12-28T07:52:41;7.50;;;4.53;;
16766;SDS011;8501;49.926;8.404;2023-12-28T07:55:10;4.77;;;3.80;;
16766;SDS011;8501;49.926;8.404;2023-12-28T07:57:36;6.40;;;4.80;;
16766;SDS011;8501;49.926;8.404;2023-12-28T08:00:02;7.10;;;4.33;;
16766;SDS011;8501;49.926;8.404;2023-12-28T08:02:28;7.23;;;4.50;;
16766;SDS011;8501;49.926;8.404;2023-12-28T08:04:54;5.50;;;4.63;;
16766;SDS011;8501;49.926;8.404;2023-12-28T08:07:19;5.93;;;4.33;;
16766;SDS011;8501;49.926;8.404;2023-12-28T08:09:45;5.23;;;4.03;;
16766;SDS011;8501;49.926;8.404;2023-12-28T08:12:10;5.10;;;4.03;;
16766;SDS011;8501;49.926;8.404;2023-12-28T08:14:36;6.83;;;4.30;;
16766;SDS011;8501;49.926;8.404;2023-12-28T08:17:02;6.37;;;4.00;;
16766;SDS011;8501;49.926;8.404;2023-12-28T08:19:28;6.73;;;4.20;;
16766;SDS011;8501;49.926;8.404;2023-12-28T08:21:53;5.13;;;3.97;;
16766;SDS011;8501;49.926;8.404;2023-12-28T08:24:19;7.47;;;4.20;;
16766;SDS011;8501;49.926;8.404;2023-12-28T08:26:46;7.37;;;4.60;;
16766;SDS011;8501;49.926;8.404;2023-12-28T08:29:11;5.33;;;4.00;;
16766;SDS011;8501;49.926;8.404;2023-12-28T08:31:38;7.73;;;4.50;;
16766;SDS011;8501;49.926;8.404;2023-12-28T08:34:04;7.50;;;4.57;;
16766;SDS011;8501;49.926;8.404;2023-12-28T08:36:31;7.23;;;4.43;;
16766;SDS011;8501;49.926;8.404;2023-12-28T08:38:57;7.53;;;4.40;;
16766;SDS011;8501;49.926;8.404;2023-12-28T08:41:23;7.70;;;4.17;;
16766;SDS011;8501;49.926;8.404;2023-12-28T08:43:54;8.43;;;5.00;;
16766;SDS011;8501;49.926;8.404;2023-12-28T08:46:21;5.80;;;4.57;;
16766;SDS011;8501;49.926;8.404;2023-12-28T08:48:47;8.07;;;5.20;;
16766;SDS011;8501;49.926;8.404;2023-12-28T08:51:12;7.10;;;4.27;;
16766;SDS011;8501;49.926;8.404;2023-12-28T08:53:40;5.97;;;4.63;;
16766;SDS011;8501;49.926;8.404;2023-12-28T08:56:18;8.03;;;4.53;;
16766;SDS011;8501;49.926;8.404;2023-12-28T08:58:45;7.03;;;4.70;;
16766;SDS011;8501;49.926;8.404;2023-12-28T09:01:17;5.97;;;4.40;;
16766;SDS011;8501;49.926;8.404;2023-12-28T09:03:49;7.30;;;4.50;;
16766;SDS011;8501;49.926;8.404;2023-12-28T09:06:19;7.13;;;4.33;;
16766;SDS011;8501;49.926;8.404;2023-12-28T09:08:47;6.27;;;4.30;;
16766;SDS011;8501;49.926;8.404;2023-12-28T09:11:15;7.77;;;4.80;;
16766;SDS011;8501;49.926;8.404;2023-12-28T09:13:42;6.83;;;4.13;;
16766;SDS011;8501;49.926;8.404;2023-12-28T09:16:08;5.93;;;4.10;;
16766;SDS011;8501;49.926;8.404;2023-12-28T09:18:36;6.77;;;4.17;;
16766;SDS011;8501;49.926;8.404;2023-12-28T09:21:04;7.93;;;4.53;;
16766;SDS011;8501;49.926;8.404;2023-12-28T09:23:31;7.33;;;4.30;;
16766;SDS011;8501;49.926;8.404;2023-12-28T09:25:58;7.53;;;4.57;;
16766;SDS011;8501;49.926;8.404;2023-12-28T09:28:25;8.07;;;4.50;;
16766;SDS011;8501;49.926;8.404;2023-12-28T09:30:51;6.27;;;4.40;;
16766;SDS011;8501;49.926;8.404;2023-12-28T09:33:16;7.53;;;4.20;;
16766;SDS011;8501;49.926;8.404;2023-12-28T09:35:42;7.73;;;4.23;;
16766;SDS011;8501;49.926;8.404;2023-12-28T09:38:08;5.90;;;4.07;;
16766;SDS011;8501;49.926;8.404;2023-12-28T09:40:37;5.40;;;4.00;;
16766;SDS011;8501;49.926;8.404;2023-12-28T09:45:34;6.00;;;4.33;;
16766;SDS011;8501;49.926;8.404;2023-12-28T09:48:00;6.90;;;4.07;;
16766;SDS011;8501;49.926;8.404;2023-12-28T09:50:28;6.93;;;4.40;;
16766;SDS011;8501;49.926;8.404;2023-12-28T09:52:54;7.20;;;4.30;;
16766;SDS011;8501;49.926;8.404;2023-12-28T09:55:22;6.90;;;4.50;;
16766;SDS011;8501;49.926;8.404;2023-12-28T09:57:50;7.90;;;4.27;;
16766;SDS011;8501;49.926;8.404;2023-12-28T10:00:17;9.10;;;4.17;;
16766;SDS011;8501;49.926;8.404;2023-12-28T10:02:44;7.47;;;3.70;;
16766;SDS011;8501;49.926;8.404;2023-12-28T10:05:14;5.67;;;3.63;;
16766;SDS011;8501;49.926;8.404;2023-12-28T10:07:44;6.47;;;4.27;;
16766;SDS011;8501;49.926;8.404;2023-12-28T10:10:10;5.20;;;3.77;;
16766;SDS011;8501;49.926;8.404;2023-12-28T10:12:36;4.70;;;3.63;;
16766;SDS011;8501;49.926;8.404;2023-12-28T10:15:03;8.73;;;3.70;;
16766;SDS011;8501;49.926;8.404;2023-12-28T10:17:31;6.07;;;3.97;;
16766;SDS011;8501;49.926;8.404;2023-12-28T10:19:58;8.20;;;4.43;;
16766;SDS011;8501;49.926;8.404;2023-12-28T10:22:32;6.10;;;4.30;;
16766;SDS011;8501;49.926;8.404;2023-12-28T10:24:58;4.87;;;3.80;;
16766;SDS011;8501;49.926;8.404;2023-12-28T10:27:28;6.43;;;3.60;;
16766;SDS011;8501;49.926;8.404;2023-12-28T10:29:54;6.40;;;4.13;;
16766;SDS011;8501;49.926;8.404;2023-12-28T10:32:20;5.73;;;3.80;;
16766;SDS011;8501;49.926;8.404;2023-12-28T10:34:47;8.97;;;4.20;;
16766;SDS011;8501;49.926;8.404;2023-12-28T10:37:13;5.17;;;3.47;;
16766;SDS011;8501;49.926;8.404;2023-12-28T10:39:40;7.13;;;3.67;;
16766;SDS011;8501;49.926;8.404;2023-12-28T10:42:12;6.77;;;3.87;;
16766;SDS011;8501;49.926;8.404;2023-12-28T10:44:42;6.17;;;4.00;;
16766;SDS011;8501;49.926;8.404;2023-12-28T10:47:14;6.43;;;4.00;;
16766;SDS011;8501;49.926;8.404;2023-12-28T10:49:43;4.67;;;3.80;;
16766;SDS011;8501;49.926;8.404;2023-12-28T10:52:12;5.83;;;3.83;;
16766;SDS011;8501;49.926;8.404;2023-12-28T10:54:47;4.80;;;3.37;;
16766;SDS011;8501;49.926;8.404;2023-12-28T11:00:41;4.93;;;3.70;;
16766;SDS011;8501;49.926;8.404;2023-12-28T11:03:11;5.67;;;4.03;;
16766;SDS011;8501;49.926;8.404;2023-12-28T11:05:40;8.20;;;4.30;;
16766;SDS011;8501;49.926;8.404;2023-12-28T11:08:08;4.50;;;3.87;;
16766;SDS011;8501;49.926;8.404;2023-12-28T11:10:35;6.33;;;4.03;;
16766;SDS011;8501;49.926;8.404;2023-12-28T11:13:02;6.00;;;4.37;;
16766;SDS011;8501;49.926;8.404;2023-12-28T11:15:30;6.97;;;5.07;;
16766;SDS011;8501;49.926;8.404;2023-12-28T11:17:56;8.37;;;5.30;;
16766;SDS011;8501;49.926;8.404;2023-12-28T11:20:22;7.17;;;4.63;;
16766;SDS011;8501;49.926;8.404;2023-12-28T11:22:48;6.50;;;4.40;;
16766;SDS011;8501;49.926;8.404;2023-12-28T11:25:14;7.03;;;4.60;;
16766;SDS011;8501;49.926;8.404;2023-12-28T11:27:41;5.83;;;4.37;;
16766;SDS011;8501;49.926;8.404;2023-12-28T11:30:07;5.70;;;4.07;;
16766;SDS011;8501;49.926;8.404;2023-12-28T11:32:35;4.97;;;4.30;;
16766;SDS011;8501;49.926;8.404;2023-12-28T11:35:02;5.33;;;3.93;;
16766;SDS011;8501;49.926;8.404;2023-12-28T11:37:31;4.60;;;3.20;;
16766;SDS011;8501;49.926;8.404;2023-12-28T11:39:58;5.50;;;3.00;;
16766;SDS011;8501;49.926;8.404;2023-12-28T11:42:34;6.30;;;3.40;;
16766;SDS011;8501;49.926;8.404;2023-12-28T11:44:59;6.97;;;3.20;;
16766;SDS011;8501;49.926;8.404;2023-12-28T11:47:25;7.53;;;3.40;;
16766;SDS011;8501;49.926;8.404;2023-12-28T11:49:54;6.50;;;3.57;;
16766;SDS011;8501;49.926;8.404;2023-12-28T11:52:27;4.63;;;2.87;;
16766;SDS011;8501;49.926;8.404;2023-12-28T11:54:54;5.37;;;3.10;;
16766;SDS011;8501;49.926;8.404;2023-12-28T11:57:20;9.60;;;3.47;;
16766;SDS011;8501;49.926;8.404;2023-12-28T11:59:47;7.97;;;3.50;;
16766;SDS011;8501;49.926;8.404;2023-12-28T12:02:17;6.07;;;3.20;;
16766;SDS011;8501;49.926;8.404;2023-12-28T12:04:44;6.30;;;3.40;;
16766;SDS011;8501;49.926;8.404;2023-12-28T12:07:09;6.30;;;3.17;;
16766;SDS011;8501;49.926;8.404;2023-12-28T12:09:35;4.40;;;3.20;;
16766;SDS011;8501;49.926;8.404;2023-12-28T12:12:01;4.33;;;2.90;;
16766;SDS011;8501;49.926;8.404;2023-12-28T12:14:27;7.63;;;3.50;;
16766;SDS011;8501;49.926;8.404;2023-12-28T12:16:53;5.50;;;3.10;;
16766;SDS011;8501;49.926;8.404;2023-12-28T12:19:22;4.90;;;3.03;;
16766;SDS011;8501;49.926;8.404;2023-12-28T12:21:48;5.30;;;3.17;;
16766;SDS011;8501;49.926;8.404;2023-12-28T12:24:14;6.93;;;3.70;;
16766;SDS011;8501;49.926;8.404;2023-12-28T12:26:42;5.40;;;3.10;;
16766;SDS011;8501;49.926;8.404;2023-12-28T12:29:12;6.50;;;3.63;;
16766;SDS011;8501;49.926;8.404;2023-12-28T12:31:39;6.90;;;3.77;;
16766;SDS011;8501;49.926;8.404;2023-12-28T12:34:07;5.73;;;3.30;;
16766;SDS011;8501;49.926;8.404;2023-12-28T12:36:34;7.23;;;3.93;;
16766;SDS011;8501;49.926;8.404;2023-12-28T12:38:59;6.03;;;4.23;;
16766;SDS011;8501;49.926;8.404;2023-12-28T12:41:25;7.50;;;3.93;;
16766;SDS011;8501;49.926;8.404;2023-12-28T12:43:51;6.77;;;4.17;;
16766;SDS011;8501;49.926;8.404;2023-12-28T12:46:20;4.60;;;3.23;;
16766;SDS011;8501;49.926;8.404;2023-12-28T12:48:54;7.60;;;3.77;;
16766;SDS011;8501;49.926;8.404;2023-12-28T12:51:24;6.03;;;3.63;;
16766;SDS011;8501;49.926;8.404;2023-12-28T12:53:50;6.50;;;4.00;;
16766;SDS011;8501;49.926;8.404;2023-12-28T12:56:30;7.60;;;4.10;;
16766;SDS011;8501;49.926;8.404;2023-12-28T12:58:56;7.97;;;4.50;;
16766;SDS011;8501;49.926;8.404;2023-12-28T13:01:22;6.37;;;4.27;;
16766;SDS011;8501;49.926;8.404;2023-12-28T13:03:49;8.00;;;4.23;;
16766;SDS011;8501;49.926;8.404;2023-12-28T13:06:15;6.43;;;4.30;;
16766;SDS011;8501;49.926;8.404;2023-12-28T13:08:41;6.67;;;4.10;;
16766;SDS011;8501;49.926;8.404;2023-12-28T13:11:07;7.20;;;3.93;;
16766;SDS011;8501;49.926;8.404;2023-12-28T13:13:33;6.30;;;4.43;;
16766;SDS011;8501;49.926;8.404;2023-12-28T13:15:59;4.77;;;4.00;;
16766;SDS011;8501;49.926;8.404;2023-12-28T13:18:24;6.97;;;4.17;;
16766;SDS011;8501;49.926;8.404;2023-12-28T13:20:50;6.73;;;4.00;;
16766;SDS011;8501;49.926;8.404;2023-12-28T13:23:15;5.43;;;3.63;;
16766;SDS011;8501;49.926;8.404;2023-12-28T13:25:41;4.60;;;3.83;;
16766;SDS011;8501;49.926;8.404;2023-12-28T13:28:07;5.90;;;3.40;;
16766;SDS011;8501;49.926;8.404;2023-12-28T13:30:34;4.77;;;4.03;;
16766;SDS011;8501;49.926;8.404;2023-12-28T13:33:01;5.37;;;3.83;;
16766;SDS011;8501;49.926;8.404;2023-12-28T13:35:28;5.63;;;3.30;;
16766;SDS011;8501;49.926;8.404;2023-12-28T13:37:55;3.97;;;3.10;;
16766;SDS011;8501;49.926;8.404;2023-12-28T13:40:20;4.00;;;2.40;;
16766;SDS011;8501;49.926;8.404;2023-12-28T13:42:46;4.13;;;2.53;;
16766;SDS011;8501;49.926;8.404;2023-12-28T13:45:12;3.93;;;2.30;;
16766;SDS011;8501;49.926;8.404;2023-12-28T13:47:37;2.50;;;2.13;;
16766;SDS011;8501;49.926;8.404;2023-12-28T13:50:03;2.90;;;2.20;;
16766;SDS011;8501;49.926;8.404;2023-12-28T13:52:29;2.90;;;2.40;;
16766;SDS011;8501;49.926;8.404;2023-12-28T13:54:55;2.10;;;1.90;;
16766;SDS011;8501;49.926;8.404;2023-12-28T13:57:20;2.40;;;2.10;;
16766;SDS011;8501;49.926;8.404;2023-12-28T13:59:46;2.27;;;1.90;;
16766;SDS011;8501;49.926;8.404;2023-12-28T14:02:11;1.83;;;1.67;;
16766;SDS011;8501;49.926;8.404;2023-12-28T14:04:37;1.63;;;1.53;;
16766;SDS011;8501;49.926;8.404;2023-12-28T14:07:02;4.00;;;1.97;;
16766;SDS011;8501;49.926;8.404;2023-12-28T14:09:28;2.00;;;1.80;;
16766;SDS011;8501;49.926;8.404;2023-12-28T14:11:55;2.50;;;1.70;;
16766;SDS011;8501;49.926;8.404;2023-12-28T14:14:20;1.93;;;1.73;;
16766;SDS011;8501;49.926;8.404;2023-12-28T14:16:46;2.37;;;2.00;;
16766;SDS011;8501;49.926;8.404;2023-12-28T14:19:12;4.00;;;2.27;;
16766;SDS011;8501;49.926;8.404;2023-12-28T14:21:38;2.70;;;1.90;;
16766;SDS011;8501;49.926;8.404;2023-12-28T14:24:04;2.57;;;2.10;;
16766;SDS011;8501;49.926;8.404;2023-12-28T14:26:39;3.73;;;2.50;;
16766;SDS011;8501;49.926;8.404;2023-12-28T14:29:09;3.03;;;2.10;;
16766;SDS011;8501;49.926;8.404;2023-12-28T14:31:35;3.57;;;2.10;;
16766;SDS011;8501;49.926;8.404;2023-12-28T14:34:02;2.83;;;2.20;;
16766;SDS011;8501;49.926;8.404;2023-12-28T14:36:32;3.40;;;2.43;;
16766;SDS011;8501;49.926;8.404;2023-12-28T14:38:59;3.53;;;2.83;;
16766;SDS011;8501;49.926;8.404;2023-12-28T14:41:26;2.80;;;2.47;;
16766;SDS011;8501;49.926;8.404;2023-12-28T14:43:52;2.50;;;2.30;;
16766;SDS011;8501;49.926;8.404;2023-12-28T14:46:20;2.43;;;2.23;;
16766;SDS011;8501;49.926;8.404;2023-12-28T14:48:46;3.73;;;2.60;;
16766;SDS011;8501;49.926;8.404;2023-12-28T14:51:12;2.50;;;2.30;;
16766;SDS011;8501;49.926;8.404;2023-12-28T14:53:37;2.33;;;2.03;;
16766;SDS011;8501;49.926;8.404;2023-12-28T14:56:03;3.37;;;2.70;;
16766;SDS011;8501;49.926;8.404;2023-12-28T14:58:28;3.27;;;2.60;;
16766;SDS011;8501;49.926;8.404;2023-12-28T15:00:55;3.97;;;2.53;;
16766;SDS011;8501;49.926;8.404;2023-12-28T15:03:21;3.10;;;2.57;;
16766;SDS011;8501;49.926;8.404;2023-12-28T15:05:47;3.67;;;2.70;;